createdAt,value
2023-03-28T00:02:02.185Z,0.60
2023-03-28T00:07:04.005Z,0.80
2023-03-28T00:12:05.554Z,0.93
2023-03-28T00:17:07.629Z,1.17
2023-03-28T00:22:08.969Z,1.40
2023-03-28T00:27:10.567Z,1.17
2023-03-28T00:32:11.940Z,1.48
2023-03-28T00:37:17.147Z,1.77
2023-03-28T00:42:23.442Z,2.03
2023-03-28T00:47:27.443Z,1.60
2023-03-28T00:52:34.384Z,1.67
2023-03-28T00:57:38.158Z,1.23
2023-03-28T01:02:45.558Z,1.73
2023-03-28T01:07:52.866Z,1.65
2023-03-28T01:12:55.971Z,1.35
2023-03-28T01:18:02.925Z,1.20
2023-03-28T01:23:41.319Z,1.77
2023-03-28T01:28:51.819Z,1.60
2023-03-28T01:34:20.574Z,1.60
2023-03-28T01:39:39.134Z,1.38
2023-03-28T01:45:00.280Z,1.05
2023-03-28T01:50:31.127Z,1.77
2023-03-28T01:55:48.577Z,1.33
2023-03-28T02:01:16.606Z,1.65
2023-03-28T02:06:21.217Z,1.30
2023-03-28T02:11:25.393Z,1.40
2023-03-28T02:16:27.721Z,1.13
2023-03-28T02:21:39.336Z,1.20
2023-03-28T02:26:41.474Z,1.38
2023-03-28T02:31:42.948Z,1.00
2023-03-28T02:36:50.336Z,1.33
2023-03-28T02:42:29.012Z,1.33
2023-03-28T02:47:59.574Z,1.92
2023-03-28T02:53:13.928Z,1.10
2023-03-28T02:58:26.295Z,1.48
2023-03-28T03:03:28.013Z,1.48
2023-03-28T03:08:30.035Z,1.58
2023-03-28T03:13:31.415Z,2.00
2023-03-28T03:18:34.812Z,1.77
2023-03-28T03:23:36.636Z,2.13
2023-03-28T03:28:38.000Z,2.42
2023-03-28T03:33:39.455Z,2.60
2023-03-28T03:38:40.918Z,3.05
2023-03-28T03:43:42.279Z,4.18
2023-03-28T03:48:49.200Z,3.17
2023-03-28T03:53:51.683Z,3.72
2023-03-28T03:58:53.034Z,3.88
2023-03-28T04:03:54.471Z,3.17
2023-03-28T04:08:56.211Z,3.38
2023-03-28T04:13:57.525Z,3.55
2023-03-28T04:18:59.447Z,3.20
2023-03-28T04:24:01.755Z,3.97
2023-03-28T04:29:04.380Z,3.45
2023-03-28T04:34:06.679Z,3.03
2023-03-28T04:39:08.622Z,3.47
2023-03-28T04:44:10.028Z,3.70
2023-03-28T04:49:11.465Z,3.65
2023-03-28T04:54:12.901Z,3.40
2023-03-28T04:59:15.530Z,4.10
2023-03-28T05:04:18.385Z,4.00
2023-03-28T05:09:19.766Z,3.25
2023-03-28T05:14:21.410Z,3.30
2023-03-28T05:19:22.945Z,3.15
2023-03-28T05:24:24.406Z,3.33
2023-03-28T05:29:25.796Z,2.60
2023-03-28T05:34:29.321Z,3.90
2023-03-28T05:39:30.662Z,3.22
2023-03-28T05:44:32.051Z,2.60
2023-03-28T05:49:33.719Z,3.92
2023-03-28T05:54:35.328Z,4.45
2023-03-28T05:59:40.587Z,2.78
2023-03-28T06:04:43.455Z,3.70
2023-03-28T06:09:45.963Z,2.95
2023-03-28T06:14:47.327Z,3.83
2023-03-28T06:19:48.983Z,2.22
2023-03-28T06:24:50.381Z,2.65
2023-03-28T06:29:51.731Z,2.67
2023-03-28T06:34:53.174Z,3.20
2023-03-28T06:39:54.561Z,1.95
2023-03-28T06:44:55.946Z,1.48
2023-03-28T06:49:57.554Z,1.52
2023-03-28T06:54:59.056Z,1.00
2023-03-28T07:00:00.621Z,1.50
2023-03-28T07:05:02.046Z,1.27
2023-03-28T07:10:03.693Z,0.80
2023-03-28T07:15:05.973Z,1.27
2023-03-28T07:20:07.795Z,0.90
2023-03-28T07:25:09.358Z,1.55
2023-03-28T07:30:12.242Z,1.63
2023-03-28T07:35:13.731Z,1.13
2023-03-28T07:40:16.375Z,1.15
2023-03-28T07:45:17.984Z,2.15
2023-03-28T07:50:19.922Z,1.05
2023-03-28T07:55:21.850Z,1.15
2023-03-28T08:00:23.890Z,1.92
2023-03-28T08:05:26.411Z,0.88
2023-03-28T08:10:27.935Z,0.80
2023-03-28T08:15:29.393Z,0.80
2023-03-28T08:20:30.889Z,0.68
2023-03-28T08:25:32.250Z,0.80
2023-03-28T08:30:33.632Z,1.15
2023-03-28T08:35:35.686Z,1.25
2023-03-28T08:40:44.882Z,0.50
2023-03-28T08:45:52.080Z,0.75
2023-03-28T08:51:01.018Z,0.90
2023-03-28T08:56:06.246Z,0.70
2023-03-28T09:01:09.956Z,0.50
2023-03-28T09:06:30.851Z,0.77
2023-03-28T09:11:45.335Z,0.40
2023-03-28T09:16:56.215Z,0.25
2023-03-28T09:22:16.464Z,0.20
2023-03-28T09:27:32.788Z,1.05
2023-03-28T09:32:39.498Z,0.30
2023-03-28T09:37:42.527Z,1.20
2023-03-28T09:42:55.251Z,0.30
2023-03-28T09:47:57.161Z,0.60
2023-03-28T09:52:59.073Z,0.40
2023-03-28T09:58:12.149Z,0.40
2023-03-28T10:03:29.336Z,0.40
2023-03-28T10:08:40.683Z,0.30
2023-03-28T10:13:52.777Z,0.25
2023-03-28T10:18:54.653Z,0.90
2023-03-28T10:24:10.091Z,0.40
2023-03-28T10:29:13.840Z,0.45
2023-03-28T10:34:33.517Z,0.40
2023-03-28T10:39:35.448Z,0.40
2023-03-28T10:44:36.925Z,0.30
2023-03-28T10:49:47.046Z,0.50
2023-03-28T10:55:04.610Z,0.38
2023-03-28T11:00:19.478Z,0.40
2023-03-28T11:06:06.289Z,0.20
2023-03-28T11:11:42.142Z,0.30
2023-03-28T11:17:23.882Z,0.50
2023-03-28T11:23:02.839Z,0.30
2023-03-28T11:28:15.868Z,0.30
2023-03-28T11:33:24.883Z,0.30
2023-03-28T11:38:40.671Z,0.52
2023-03-28T11:43:49.583Z,0.20
2023-03-28T11:49:15.389Z,0.38
2023-03-28T11:54:22.170Z,0.30
2023-03-28T11:59:26.432Z,0.40
2023-03-28T12:04:33.799Z,0.20
2023-03-28T12:09:50.127Z,0.45
2023-03-28T12:15:00.399Z,0.30
2023-03-28T12:20:02.175Z,0.63
2023-03-28T12:25:21.439Z,0.75
2023-03-28T12:30:35.618Z,0.30
2023-03-28T12:35:52.432Z,0.63
2023-03-28T12:41:05.915Z,0.20
2023-03-28T12:46:08.593Z,0.30
2023-03-28T12:51:15.960Z,0.30
2023-03-28T12:56:17.476Z,0.30
2023-03-28T13:01:45.504Z,0.30
2023-03-28T13:07:04.051Z,0.80
2023-03-28T13:12:26.106Z,0.20
2023-03-28T13:17:34.018Z,0.30
2023-03-28T13:22:54.550Z,0.17
2023-03-28T13:28:00.388Z,0.30
2023-03-28T13:33:12.738Z,0.28
2023-03-28T13:38:29.151Z,0.30
2023-03-28T13:43:33.382Z,0.75
2023-03-28T13:48:43.987Z,0.40
2023-03-28T13:53:48.676Z,0.20
2023-03-28T13:58:52.201Z,0.20
2023-03-28T14:03:54.867Z,0.40
2023-03-28T14:09:01.154Z,0.70
2023-03-28T14:14:13.021Z,0.28
2023-03-28T14:19:21.997Z,0.30
2023-03-28T14:24:26.639Z,0.38
2023-03-28T14:29:27.989Z,0.25
2023-03-28T14:34:38.732Z,0.30
2023-03-28T14:39:40.159Z,0.40
2023-03-28T14:44:44.538Z,0.30
2023-03-28T14:49:46.799Z,0.40
2023-03-28T14:54:49.827Z,0.40
2023-03-28T14:59:52.427Z,0.77
2023-03-28T15:04:58.362Z,0.35
2023-03-28T15:10:21.822Z,0.40
2023-03-28T15:15:28.522Z,0.50
2023-03-28T15:20:34.452Z,0.60
2023-03-28T15:25:36.653Z,0.55
2023-03-28T15:30:43.518Z,0.40
2023-03-28T15:35:45.139Z,1.40
2023-03-28T15:40:49.443Z,0.47
2023-03-28T15:46:02.056Z,0.40
2023-03-28T15:51:06.130Z,0.52
2023-03-28T15:56:29.570Z,0.55
2023-03-28T16:01:32.698Z,0.60
2023-03-28T16:06:41.720Z,0.80
2023-03-28T16:11:44.854Z,1.30
2023-03-28T16:16:46.518Z,0.50
2023-03-28T16:21:48.395Z,0.50
2023-03-28T16:26:49.811Z,0.40
2023-03-28T16:31:51.232Z,0.40
2023-03-28T16:36:55.914Z,0.60
2023-03-28T16:41:57.275Z,0.70
2023-03-28T16:47:00.141Z,0.98
2023-03-28T16:52:01.599Z,1.10
2023-03-28T16:57:04.095Z,0.70
2023-03-28T17:02:05.594Z,0.80
2023-03-28T17:07:06.976Z,0.50
2023-03-28T17:12:08.922Z,0.60
2023-03-28T17:17:10.361Z,1.00
2023-03-28T17:22:13.069Z,0.52
2023-03-28T17:27:14.677Z,1.00
2023-03-28T17:32:16.084Z,0.50
2023-03-28T17:37:17.676Z,0.63
2023-03-28T17:42:19.103Z,0.40
2023-03-28T17:47:20.442Z,0.55
2023-03-28T17:52:21.776Z,1.08
2023-03-28T17:57:23.323Z,0.80
2023-03-28T18:02:24.979Z,0.60
2023-03-28T18:07:27.030Z,0.85
2023-03-28T18:12:28.420Z,1.00
2023-03-28T18:17:30.278Z,0.70
2023-03-28T18:22:31.805Z,0.50
2023-03-28T18:27:33.345Z,0.82
2023-03-28T18:32:35.989Z,1.00
2023-03-28T18:37:37.417Z,0.85
2023-03-28T18:42:38.899Z,0.85
2023-03-28T18:47:41.006Z,0.90
2023-03-28T18:52:42.844Z,1.00
2023-03-28T18:57:44.637Z,0.90
2023-03-28T19:02:46.955Z,0.55
2023-03-28T19:07:48.780Z,0.82
2023-03-28T19:12:51.479Z,2.05
2023-03-28T19:17:54.497Z,1.05
2023-03-28T19:22:55.969Z,1.63
2023-03-28T19:27:57.306Z,0.68
2023-03-28T19:32:58.789Z,1.02
2023-03-28T19:38:02.294Z,1.02
2023-03-28T19:43:03.698Z,0.73
2023-03-28T19:48:05.293Z,1.33
2023-03-28T19:53:06.727Z,1.42
2023-03-28T19:58:10.057Z,1.60
2023-03-28T20:03:11.573Z,1.40
2023-03-28T20:08:13.586Z,1.00
2023-03-28T20:13:16.645Z,1.52
2023-03-28T20:18:20.294Z,1.83
2023-03-28T20:23:23.713Z,1.75
2023-03-28T20:28:25.302Z,1.02
2023-03-28T20:33:26.973Z,1.23
2023-03-28T20:38:29.896Z,1.20
2023-03-28T20:43:36.654Z,0.90
2023-03-28T20:48:38.340Z,0.83
2023-03-28T20:53:44.907Z,0.82
2023-03-28T20:58:46.574Z,0.70
2023-03-28T21:03:50.962Z,0.80
2023-03-28T21:08:54.356Z,1.45
2023-03-28T21:13:56.987Z,0.40
2023-03-28T21:18:59.748Z,0.70
2023-03-28T21:24:02.876Z,1.50
2023-03-28T21:29:04.611Z,0.85
2023-03-28T21:34:05.950Z,1.02
2023-03-28T21:39:07.801Z,0.50
2023-03-28T21:44:09.184Z,0.80
2023-03-28T21:49:10.931Z,0.75
2023-03-28T21:54:12.534Z,0.77
2023-03-28T21:59:13.934Z,0.88
2023-03-28T22:04:15.766Z,0.70
2023-03-28T22:09:17.108Z,1.05
2023-03-28T22:14:18.454Z,0.52
2023-03-28T22:19:20.076Z,0.98
2023-03-28T22:24:21.801Z,0.93
2023-03-28T22:29:23.331Z,0.80
2023-03-28T22:34:24.868Z,0.80
2023-03-28T22:39:26.192Z,0.77
2023-03-28T22:44:27.621Z,1.33
2023-03-28T22:49:31.348Z,0.57
2023-03-28T22:54:34.521Z,0.65
2023-03-28T22:59:36.237Z,0.68
2023-03-28T23:04:38.425Z,0.70
2023-03-28T23:09:41.605Z,0.47
2023-03-28T23:14:42.983Z,1.08
2023-03-28T23:19:44.645Z,0.90
2023-03-28T23:24:46.786Z,0.50
2023-03-28T23:29:48.223Z,0.85
2023-03-28T23:34:49.596Z,0.60
2023-03-28T23:39:51.302Z,0.50
2023-03-28T23:44:52.705Z,0.70
2023-03-28T23:49:54.053Z,0.45
2023-03-28T23:54:55.879Z,0.70
2023-03-28T23:59:57.396Z,0.50
